Time;durP1;ratioP1;P1;durP2;ratioP2;P2;SDS_P1;SDS_P2;PMS_P1;PMS_P2;Temp;Humidity;BMP_temperature;BMP_pressure;BME280_temperature;BME280_humidity;BME280_pressure;Samples;Min_cycle;Max_cycle;Signal;HPM_P1;HPM_P2
2021/11/16 00:07:01;;;;;;;27.2;31.5;;;;;;;7;75.4;99900;;;;
2021/11/16 00:17:02;;;;;;;27.2;31.5;;;;;;;7;75.6;99890;;;;
2021/11/16 00:27:01;;;;;;;27.2;31.5;;;;;;;6.8;75.4;99890;;;;
2021/11/16 00:37:02;;;;;;;24.9;29.3;;;;;;;6.6;75.7;99880;;;;
2021/11/16 00:47:01;;;;;;;24.9;29.3;;;;;;;6.1;76.8;99880;;;;
2021/11/16 00:57:01;;;;;;;24.9;29.3;;;;;;;5.8;76.8;99880;;;;
2021/11/16 01:07:03;;;;;;;26.6;32.3;;;;;;;5.4;77.9;99890;;;;
2021/11/16 01:17:01;;;;;;;26.6;32.3;;;;;;;5.4;78.7;99900;;;;
2021/11/16 01:28:07;;;;;;;26.6;32.3;;;;;;;5.4;78.8;99910;;;;
2021/11/16 01:38:01;;;;;;;29.7;36.8;;;;;;;5.5;79;99900;;;;
2021/11/16 01:49:02;;;;;;;29.7;36.8;;;;;;;5.6;78.9;99900;;;;
2021/11/16 01:59:01;;;;;;;32.1;38.7;;;;;;;5.6;79.1;99900;;;;
2021/11/16 02:09:02;;;;;;;32.1;38.7;;;;;;;5.7;79.2;99910;;;;
2021/11/16 02:20:01;;;;;;;32.1;38.7;;;;;;;5.8;79.3;99900;;;;
2021/11/16 02:30:01;;;;;;;30.6;34.8;;;;;;;5.9;79.2;99900;;;;
2021/11/16 02:41:02;;;;;;;30.6;34.8;;;;;;;6;79.1;99900;;;;
2021/11/16 02:51:01;;;;;;;30.6;34.8;;;;;;;6.1;79.2;99890;;;;
2021/11/16 03:01:03;;;;;;;28.4;33.4;;;;;;;6.2;78.9;99890;;;;
2021/11/16 03:12:01;;;;;;;28.4;33.4;;;;;;;6.2;78.2;99880;;;;
2021/11/16 03:22:01;;;;;;;28.4;33.4;;;;;;;6.3;78.2;99880;;;;
2021/11/16 03:32:06;;;;;;;27.6;32.6;;;;;;;6.3;78.1;99880;;;;
2021/11/16 03:43:02;;;;;;;27.6;32.6;;;;;;;6.3;78;99870;;;;
2021/11/16 03:53:02;;;;;;;27.6;32.6;;;;;;;6.2;77.8;99860;;;;
2021/11/16 04:04:01;;;;;;;27.8;35.1;;;;;;;6.2;77.9;99860;;;;
2021/11/16 04:14:01;;;;;;;27.8;35.1;;;;;;;6.2;77.8;99860;;;;
2021/11/16 04:24:01;;;;;;;27.8;35.1;;;;;;;6.2;78;99850;;;;
2021/11/16 04:35:02;;;;;;;27.8;32.7;;;;;;;6.2;77.6;99850;;;;
2021/11/16 04:45:01;;;;;;;27.8;32.7;;;;;;;6.1;77.2;99860;;;;
2021/11/16 04:55:22;;;;;;;27.8;32.7;;;;;;;6;77.2;99880;;;;
2021/11/16 05:05:02;;;;;;;22.2;27.8;;;;;;;5.8;77.5;99870;;;;
2021/11/16 05:16:01;;;;;;;22.2;27.8;;;;;;;5.8;77.8;99870;;;;
2021/11/16 05:26:01;;;;;;;22.2;27.8;;;;;;;5.8;77.8;99880;;;;
2021/11/16 05:37:01;;;;;;;21.6;26.3;;;;;;;5.7;78.1;99880;;;;
2021/11/16 05:48:01;;;;;;;21.6;26.3;;;;;;;5.7;78.4;99880;;;;
2021/11/16 05:58:01;;;;;;;22.8;26.4;;;;;;;5.7;78.4;99880;;;;
2021/11/16 06:09:04;;;;;;;22.8;26.4;;;;;;;5.5;78.8;99890;;;;
2021/11/16 06:19:01;;;;;;;22.8;26.4;;;;;;;5.5;78.4;99900;;;;
2021/11/16 06:30:02;;;;;;;21.1;25.1;;;;;;;5.6;78.4;99900;;;;
2021/11/16 06:41:01;;;;;;;21.1;25.1;;;;;;;5.4;78.7;99920;;;;
2021/11/16 06:51:01;;;;;;;21.1;25.1;;;;;;;5.2;79;99920;;;;
2021/11/16 07:02:01;;;;;;;22;27.4;;;;;;;5.2;79.3;99920;;;;
2021/11/16 07:12:01;;;;;;;22;27.4;;;;;;;5.5;78.3;99930;;;;
2021/11/16 07:23:01;;;;;;;22;27.4;;;;;;;5.5;78.6;99930;;;;
2021/11/16 07:33:02;;;;;;;26.2;30.8;;;;;;;5.4;78.6;99930;;;;
2021/11/16 07:44:01;;;;;;;26.2;30.8;;;;;;;5.3;79.6;99940;;;;
2021/11/16 07:55:01;;;;;;;26.2;30.8;;;;;;;5.5;79.4;99940;;;;
2021/11/16 08:05:04;;;;;;;25.3;29.5;;;;;;;5.6;78.8;99940;;;;
2021/11/16 08:15:02;;;;;;;25.3;29.5;;;;;;;6;78.8;99930;;;;
2021/11/16 08:26:01;;;;;;;25.3;29.5;;;;;;;5.8;78.8;99940;;;;
2021/11/16 08:37:03;;;;;;;25.5;30.5;;;;;;;6;79.2;99930;;;;
2021/11/16 08:47:01;;;;;;;25.5;30.5;;;;;;;6.2;78.1;99930;;;;
2021/11/16 08:58:01;;;;;;;25.7;34;;;;;;;6.5;77;99920;;;;
2021/11/16 09:08:02;;;;;;;25.7;34;;;;;;;6.5;77.5;99910;;;;
2021/11/16 09:18:01;;;;;;;25.7;34;;;;;;;6.8;76.5;99910;;;;
2021/11/16 09:28:05;;;;;;;29;35.5;;;;;;;6.7;76.6;99910;;;;
2021/11/16 09:39:06;;;;;;;29;35.5;;;;;;;6.6;77.3;99890;;;;
2021/11/16 09:50:01;;;;;;;29;35.5;;;;;;;6.9;77;99880;;;;
2021/11/16 10:00:02;;;;;;;35.5;44.8;;;;;;;6.5;78.3;99880;;;;
2021/11/16 10:10:01;;;;;;;35.5;44.8;;;;;;;6.7;77.8;99880;;;;
2021/11/16 10:20:02;;;;;;;35.5;44.8;;;;;;;6.9;77.2;99870;;;;
2021/11/16 10:30:02;;;;;;;39.4;49.2;;;;;;;7.1;77.4;99860;;;;
2021/11/16 10:41:02;;;;;;;39.4;49.2;;;;;;;6.9;77;99850;;;;
2021/11/16 10:51:01;;;;;;;39.4;49.2;;;;;;;6.9;77.5;99850;;;;
2021/11/16 11:01:03;;;;;;;41.2;50.1;;;;;;;6.9;77.1;99840;;;;
2021/11/16 11:11:02;;;;;;;41.2;50.1;;;;;;;7;76.7;99830;;;;
2021/11/16 11:21:02;;;;;;;41.2;50.1;;;;;;;7.2;76.4;99830;;;;
2021/11/16 11:32:02;;;;;;;41.9;51.6;;;;;;;7.4;76.5;99820;;;;
2021/11/16 11:43:02;;;;;;;41.9;51.6;;;;;;;6.9;76.9;99800;;;;
2021/11/16 11:53:02;;;;;;;41.9;51.6;;;;;;;7.1;76.3;99790;;;;
2021/11/16 12:04:02;;;;;;;42.8;53.6;;;;;;;7;75.7;99770;;;;
2021/11/16 12:14:02;;;;;;;42.8;53.6;;;;;;;7.4;75.1;99760;;;;
2021/11/16 12:25:02;;;;;;;42.8;53.6;;;;;;;7.2;75.5;99750;;;;
2021/11/16 12:35:03;;;;;;;38.5;47.5;;;;;;;7.1;75.4;99740;;;;
2021/11/16 12:45:02;;;;;;;38.5;47.5;;;;;;;7;75.7;99730;;;;
2021/11/16 12:56:02;;;;;;;38.5;47.5;;;;;;;6.9;76.7;99700;;;;
2021/11/16 13:06:02;;;;;;;41.5;54.2;;;;;;;7.2;75.9;99690;;;;
2021/11/16 13:17:02;;;;;;;41.5;54.2;;;;;;;7;75.6;99680;;;;
2021/11/16 13:28:02;;;;;;;46;62.1;;;;;;;7;75.6;99670;;;;
2021/11/16 13:39:02;;;;;;;46;62.1;;;;;;;6.7;76.4;99670;;;;
2021/11/16 13:50:03;;;;;;;46;62.1;;;;;;;6.5;76.9;99660;;;;
2021/11/16 14:00:02;;;;;;;42.8;55.8;;;;;;;6.3;77.7;99650;;;;
2021/11/16 14:11:02;;;;;;;42.8;55.8;;;;;;;6.4;77.9;99660;;;;
2021/11/16 14:22:02;;;;;;;42.8;55.8;;;;;;;6.4;77.2;99650;;;;
2021/11/16 14:32:03;;;;;;;46.2;56.2;;;;;;;6.4;77.5;99650;;;;
2021/11/16 14:42:02;;;;;;;46.2;56.2;;;;;;;6.2;77.9;99650;;;;
2021/11/16 14:52:02;;;;;;;46.2;56.2;;;;;;;6.1;78.3;99640;;;;
2021/11/16 15:03:02;;;;;;;52.1;63.1;;;;;;;5.6;79.6;99630;;;;
2021/11/16 15:13:02;;;;;;;52.1;63.1;;;;;;;5.6;79.8;99620;;;;
2021/11/16 15:24:12;;;;;;;52.1;63.1;;;;;;;5.5;80.5;99620;;;;
2021/11/16 15:34:02;;;;;;;49.4;63.1;;;;;;;5.3;80.8;99620;;;;
2021/11/16 15:45:06;;;;;;;49.4;63.1;;;;;;;5.2;81.2;99610;;;;
2021/11/16 16:06:02;;;;;;;50;64.1;;;;;;;5.1;81.4;99600;;;;
2021/11/16 16:16:02;;;;;;;50;64.1;;;;;;;4.5;83.4;99600;;;;
2021/11/16 16:26:02;;;;;;;50;64.1;;;;;;;4.7;83;99580;;;;
2021/11/16 16:37:03;;;;;;;49.9;61.5;;;;;;;4.8;82.6;99580;;;;
2021/11/16 16:47:02;;;;;;;49.9;61.5;;;;;;;4.5;82.8;99570;;;;
2021/11/16 16:57:02;;;;;;;56.3;71.9;;;;;;;4.4;83.4;99570;;;;
2021/11/16 17:08:02;;;;;;;56.3;71.9;;;;;;;4.4;83.5;99540;;;;
2021/11/16 17:19:04;;;;;;;56.3;71.9;;;;;;;4.3;83.4;99530;;;;
2021/11/16 17:30:02;;;;;;;50.7;64.2;;;;;;;4.4;83;99540;;;;
2021/11/16 17:40:02;;;;;;;50.7;64.2;;;;;;;4;83.9;99530;;;;
2021/11/16 17:50:02;;;;;;;50.7;64.2;;;;;;;4;83.7;99530;;;;
2021/11/16 18:01:02;;;;;;;51.4;65;;;;;;;4;83.5;99520;;;;
2021/11/16 18:11:02;;;;;;;51.4;65;;;;;;;4;82.9;99500;;;;
2021/11/16 18:21:02;;;;;;;51.4;65;;;;;;;4;83.1;99500;;;;
2021/11/16 18:32:02;;;;;;;57.2;72.7;;;;;;;3.9;82.9;99510;;;;
2021/11/16 18:42:05;;;;;;;57.2;72.7;;;;;;;3.7;83.7;99500;;;;
2021/11/16 18:53:04;;;;;;;57.2;72.7;;;;;;;3.8;83.9;99500;;;;
2021/11/16 19:03:02;;;;;;;44.3;53;;;;;;;3.7;84.1;99490;;;;
2021/11/16 19:13:02;;;;;;;44.3;53;;;;;;;3.6;83.6;99480;;;;
2021/11/16 19:24:02;;;;;;;44.3;53;;;;;;;3.7;83.4;99480;;;;
2021/11/16 19:34:02;;;;;;;41.8;49.3;;;;;;;3.9;82.6;99470;;;;
2021/11/16 19:45:02;;;;;;;41.8;49.3;;;;;;;3.7;81.9;99470;;;;
2021/11/16 19:56:02;;;;;;;34;40;;;;;;;3.8;82.2;99460;;;;
2021/11/16 20:06:02;;;;;;;34;40;;;;;;;3.8;81.5;99470;;;;
2021/11/16 20:16:02;;;;;;;34;40;;;;;;;3.6;81.5;99470;;;;
2021/11/16 20:27:03;;;;;;;33.6;40.7;;;;;;;3.4;82.2;99470;;;;
2021/11/16 20:38:05;;;;;;;33.6;40.7;;;;;;;3.5;82.5;99470;;;;
2021/11/16 20:59:22;;;;;;;35.3;39.5;;;;;;;3.4;81.8;99440;;;;
2021/11/16 21:09:02;;;;;;;35.3;39.5;;;;;;;3.2;82.9;99440;;;;
2021/11/16 21:19:02;;;;;;;35.3;39.5;;;;;;;3.3;82.5;99430;;;;
2021/11/16 21:30:02;;;;;;;34.4;39.2;;;;;;;3.3;82.3;99440;;;;
2021/11/16 21:41:02;;;;;;;34.4;39.2;;;;;;;3.3;81.7;99430;;;;
2021/11/16 21:52:03;;;;;;;34.4;39.2;;;;;;;3.4;82.1;99430;;;;
2021/11/16 22:03:02;;;;;;;32.3;36.8;;;;;;;3.2;82.1;99420;;;;
2021/11/16 22:13:02;;;;;;;32.3;36.8;;;;;;;3.2;82.3;99410;;;;
2021/11/16 22:24:02;;;;;;;32.3;36.8;;;;;;;3.1;82.8;99410;;;;
2021/11/16 22:35:07;;;;;;;34.9;41.5;;;;;;;3.2;81.9;99410;;;;
2021/11/16 22:45:03;;;;;;;34.9;41.5;;;;;;;3.2;81.5;99410;;;;
2021/11/16 22:55:02;;;;;;;34.2;38.9;;;;;;;3.3;81.8;99400;;;;
2021/11/16 23:07:09;;;;;;;34.2;38.9;;;;;;;3.2;81.7;99390;;;;
